createdAt,value
2022-11-05T00:01:13.210Z,88163.16
2022-11-05T00:03:57.940Z,88172.09
2022-11-05T00:06:42.587Z,88169.31
2022-11-05T00:09:27.455Z,88162.50
2022-11-05T00:12:12.278Z,88171.47
2022-11-05T00:14:56.906Z,88178.75
2022-11-05T00:17:41.896Z,88185.19
2022-11-05T00:20:26.672Z,88178.66
2022-11-05T00:23:11.886Z,88190.91
2022-11-05T00:25:56.606Z,88192.13
2022-11-05T00:28:41.295Z,88201.28
2022-11-05T00:31:26.160Z,88189.34
2022-11-05T00:34:10.907Z,88194.50
2022-11-05T00:36:55.756Z,88203.66
2022-11-05T00:39:40.446Z,88207.94
2022-11-05T00:42:25.101Z,88212.69
2022-11-05T00:45:09.763Z,88221.56
2022-11-05T00:47:54.530Z,88226.47
2022-11-05T00:50:39.366Z,88235.38
2022-11-05T00:53:24.061Z,88234.84
2022-11-05T00:56:08.752Z,88237.38
2022-11-05T00:58:53.395Z,88239.22
2022-11-05T01:01:38.333Z,88243.44
2022-11-05T01:04:23.540Z,88250.00
2022-11-05T01:07:08.327Z,88246.22
2022-11-05T01:09:53.082Z,88253.94
2022-11-05T01:12:37.706Z,88258.13
2022-11-05T01:15:22.517Z,88253.22
2022-11-05T01:18:07.309Z,88253.22
2022-11-05T01:20:52.014Z,88248.25
2022-11-05T01:23:36.640Z,88247.97
2022-11-05T01:26:21.475Z,88251.25
2022-11-05T01:29:06.184Z,88249.59
2022-11-05T01:31:51.072Z,88252.88
2022-11-05T01:34:35.801Z,88252.41
2022-11-05T01:37:20.643Z,88262.44
2022-11-05T01:40:05.410Z,88263.34
2022-11-05T01:42:50.198Z,88260.94
2022-11-05T01:45:34.908Z,88266.09
2022-11-05T01:48:19.643Z,88269.69
2022-11-05T01:51:04.364Z,88271.06
2022-11-05T01:53:49.217Z,88278.31
2022-11-05T01:56:33.936Z,88283.28
2022-11-05T01:59:18.833Z,88292.66
2022-11-05T02:02:03.602Z,88297.84
2022-11-05T02:04:48.811Z,88301.63
2022-11-05T02:07:33.740Z,88304.91
2022-11-05T02:10:18.373Z,88310.34
2022-11-05T02:13:03.377Z,88308.78
2022-11-05T02:15:48.070Z,88310.41
2022-11-05T02:18:32.920Z,88307.78
2022-11-05T02:21:17.673Z,88308.19
2022-11-05T02:24:02.395Z,88312.13
2022-11-05T02:26:47.369Z,88310.75
2022-11-05T02:29:32.041Z,88308.09
2022-11-05T02:32:17.002Z,88308.06
2022-11-05T02:35:01.647Z,88289.47
2022-11-05T02:37:46.469Z,88284.66
2022-11-05T02:40:31.305Z,88287.78
2022-11-05T02:43:16.455Z,88278.97
2022-11-05T02:46:01.186Z,88282.63
2022-11-05T02:48:46.008Z,88285.69
2022-11-05T02:51:30.694Z,88285.56
2022-11-05T02:54:15.371Z,88280.72
2022-11-05T02:57:00.255Z,88273.09
2022-11-05T02:59:44.875Z,88271.63
2022-11-05T03:02:29.795Z,88272.81
2022-11-05T03:05:16.246Z,88277.34
2022-11-05T03:08:01.134Z,88271.19
2022-11-05T03:10:45.755Z,88274.00
2022-11-05T03:13:30.656Z,88281.06
2022-11-05T03:16:15.421Z,88287.56
2022-11-05T03:19:00.102Z,88297.44
2022-11-05T03:21:44.802Z,88296.13
2022-11-05T03:24:29.465Z,88297.66
2022-11-05T03:27:14.228Z,88302.59
2022-11-05T03:29:59.016Z,88307.53
2022-11-05T03:32:43.864Z,88316.88
2022-11-05T03:35:28.580Z,88323.72
2022-11-05T03:38:13.296Z,88320.38
2022-11-05T03:40:57.921Z,88331.84
2022-11-05T03:43:42.657Z,88338.09
2022-11-05T03:46:27.255Z,88327.19
2022-11-05T03:49:12.050Z,88329.97
2022-11-05T03:51:56.881Z,88339.50
2022-11-05T03:54:41.507Z,88354.75
2022-11-05T03:57:26.394Z,88354.72
2022-11-05T04:00:11.014Z,88345.56
2022-11-05T04:02:55.836Z,88343.88
2022-11-05T04:05:40.787Z,88344.53
2022-11-05T04:08:25.615Z,88345.22
2022-11-05T04:11:10.279Z,88349.41
2022-11-05T04:13:55.043Z,88344.25
2022-11-05T04:16:39.720Z,88342.31
2022-11-05T04:19:26.244Z,88343.22
2022-11-05T04:22:11.262Z,88338.78
2022-11-05T04:24:56.206Z,88354.28
2022-11-05T04:27:41.167Z,88355.25
2022-11-05T04:30:25.940Z,88359.97
2022-11-05T04:33:10.984Z,88355.06
2022-11-05T04:35:56.041Z,88354.34
2022-11-05T04:38:40.852Z,88360.44
2022-11-05T04:41:25.675Z,88351.06
2022-11-05T04:44:10.405Z,88349.94
2022-11-05T04:46:55.343Z,88353.47
2022-11-05T04:49:40.134Z,88353.69
2022-11-05T04:52:24.856Z,88349.88
2022-11-05T04:55:09.475Z,88353.22
2022-11-05T04:57:54.304Z,88360.53
2022-11-05T05:00:39.050Z,88366.19
2022-11-05T05:03:23.932Z,88372.06
2022-11-05T05:06:08.699Z,88371.16
2022-11-05T05:08:53.468Z,88372.81
2022-11-05T05:11:38.201Z,88372.06
2022-11-05T05:14:22.826Z,88380.72
2022-11-05T05:17:07.782Z,88376.91
2022-11-05T05:19:52.635Z,88371.91
2022-11-05T05:22:37.532Z,88376.13
2022-11-05T05:25:22.136Z,88378.50
2022-11-05T05:28:06.920Z,88378.50
2022-11-05T05:30:56.141Z,88383.44
2022-11-05T05:33:43.368Z,88387.69
2022-11-05T05:36:28.105Z,88388.44
2022-11-05T05:39:12.869Z,88388.50
2022-11-05T05:41:57.601Z,88390.91
2022-11-05T05:44:42.486Z,88395.63
2022-11-05T05:47:27.295Z,88407.59
2022-11-05T05:50:12.145Z,88401.69
2022-11-05T05:52:56.826Z,88410.38
2022-11-05T05:55:41.563Z,88400.47
2022-11-05T05:58:26.328Z,88408.69
2022-11-05T06:01:15.562Z,88412.41
2022-11-05T06:04:03.432Z,88414.25
2022-11-05T06:06:48.118Z,88419.38
2022-11-05T06:09:32.984Z,88422.91
2022-11-05T06:12:17.672Z,88420.28
2022-11-05T06:15:02.355Z,88416.72
2022-11-05T06:17:47.212Z,88412.25
2022-11-05T06:20:31.961Z,88416.94
2022-11-05T06:23:16.627Z,88415.44
2022-11-05T06:26:01.288Z,88413.47
2022-11-05T06:28:45.995Z,88421.09
2022-11-05T06:31:30.747Z,88411.16
2022-11-05T06:34:15.524Z,88413.69
2022-11-05T06:37:00.247Z,88413.84
2022-11-05T06:39:44.892Z,88420.38
2022-11-05T06:42:29.577Z,88419.28
2022-11-05T06:45:14.373Z,88418.59
2022-11-05T06:47:59.062Z,88424.75
2022-11-05T06:50:43.784Z,88420.75
2022-11-05T06:53:28.644Z,88438.66
2022-11-05T06:56:13.378Z,88437.16
2022-11-05T06:58:58.223Z,88443.88
2022-11-05T07:01:43.100Z,88452.53
2022-11-05T07:04:28.413Z,88452.41
2022-11-05T07:07:13.204Z,88466.78
2022-11-05T07:09:57.949Z,88464.72
2022-11-05T07:12:42.646Z,88467.13
2022-11-05T07:15:27.335Z,88465.50
2022-11-05T07:18:11.999Z,88471.69
2022-11-05T07:20:56.705Z,88479.91
2022-11-05T07:23:41.585Z,88476.88
2022-11-05T07:26:30.473Z,88478.97
2022-11-05T07:29:18.088Z,88483.66
2022-11-05T07:32:02.979Z,88483.16
2022-11-05T07:34:47.648Z,88486.53
2022-11-05T07:37:32.494Z,88482.94
2022-11-05T07:40:17.188Z,88487.13
2022-11-05T07:43:01.935Z,88495.94
2022-11-05T07:45:46.618Z,88496.81
2022-11-05T07:48:31.421Z,88495.09
2022-11-05T07:51:16.053Z,88488.44
2022-11-05T07:54:00.867Z,88495.47
2022-11-05T07:56:45.579Z,88493.28
2022-11-05T07:59:30.426Z,88502.75
2022-11-05T08:02:15.357Z,88497.84
2022-11-05T08:05:00.439Z,88496.16
2022-11-05T08:07:45.216Z,88497.94
2022-11-05T08:10:29.932Z,88499.81
2022-11-05T08:13:14.847Z,88502.13
2022-11-05T08:15:59.993Z,88511.25
2022-11-05T08:18:44.751Z,88511.44
2022-11-05T08:21:29.678Z,88521.34
2022-11-05T08:24:14.525Z,88525.09
2022-11-05T08:26:59.268Z,88523.16
2022-11-05T08:29:44.017Z,88527.97
2022-11-05T08:32:28.739Z,88525.59
2022-11-05T08:35:13.411Z,88524.75
2022-11-05T08:37:58.267Z,88526.28
2022-11-05T08:40:42.890Z,88523.97
2022-11-05T08:43:27.690Z,88525.53
2022-11-05T08:46:12.515Z,88524.69
2022-11-05T08:48:57.252Z,88530.94
2022-11-05T08:51:41.905Z,88527.06
2022-11-05T08:54:26.627Z,88531.19
2022-11-05T08:57:11.444Z,88520.50
2022-11-05T08:59:56.093Z,88522.88
2022-11-05T09:02:41.000Z,88519.97
2022-11-05T09:05:26.088Z,88519.53
2022-11-05T09:08:10.858Z,88527.69
2022-11-05T09:10:55.559Z,88524.47
2022-11-05T09:13:40.405Z,88531.28
2022-11-05T09:16:25.199Z,88533.72
2022-11-05T09:19:09.938Z,88529.28
2022-11-05T09:21:54.696Z,88534.13
2022-11-05T09:24:39.327Z,88537.03
2022-11-05T09:27:24.162Z,88547.16
2022-11-05T09:30:08.889Z,88549.34
2022-11-05T09:32:53.733Z,88556.03
2022-11-05T09:35:38.387Z,88557.66
2022-11-05T09:38:23.051Z,88563.34
2022-11-05T09:41:07.771Z,88556.22
2022-11-05T09:43:52.689Z,88557.66
2022-11-05T09:46:37.894Z,88571.09
2022-11-05T09:49:22.662Z,88566.50
2022-11-05T09:52:07.515Z,88567.31
2022-11-05T09:54:52.245Z,88566.25
2022-11-05T09:57:37.005Z,88576.44
2022-11-05T10:00:22.197Z,88576.84
2022-11-05T10:03:07.466Z,88577.78
2022-11-05T10:05:52.241Z,88585.31
2022-11-05T10:08:36.923Z,88580.94
2022-11-05T10:11:21.736Z,88583.44
2022-11-05T10:14:06.519Z,88584.03
2022-11-05T10:16:51.365Z,88588.63
2022-11-05T10:19:36.205Z,88595.41
2022-11-05T10:22:20.937Z,88593.47
2022-11-05T10:25:05.586Z,88594.06
2022-11-05T10:27:50.411Z,88590.84
2022-11-05T10:30:35.124Z,88597.13
2022-11-05T10:33:19.862Z,88596.22
2022-11-05T10:36:04.681Z,88595.03
2022-11-05T10:38:49.423Z,88601.66
2022-11-05T10:41:34.054Z,88590.34
2022-11-05T10:44:19.186Z,88596.44
2022-11-05T10:47:04.146Z,88596.72
2022-11-05T10:49:48.865Z,88593.22
2022-11-05T10:52:33.734Z,88597.22
2022-11-05T10:55:18.495Z,88589.66
2022-11-05T10:58:03.180Z,88588.59
2022-11-05T11:00:48.158Z,88582.69
2022-11-05T11:03:33.400Z,88585.84
2022-11-05T11:06:18.233Z,88573.03
2022-11-05T11:09:03.204Z,88573.75
2022-11-05T11:11:48.449Z,88581.59
2022-11-05T11:14:33.084Z,88579.34
2022-11-05T11:17:17.993Z,88566.53
2022-11-05T11:20:02.732Z,88570.63
2022-11-05T11:22:47.431Z,88558.72
2022-11-05T11:25:32.140Z,88563.91
2022-11-05T11:28:16.876Z,88551.59
2022-11-05T11:31:01.683Z,88552.72
2022-11-05T11:33:46.598Z,88545.84
2022-11-05T11:36:31.265Z,88550.22
2022-11-05T11:39:15.956Z,88552.22
2022-11-05T11:42:00.716Z,88554.94
2022-11-05T11:44:45.552Z,88548.31
2022-11-05T11:47:30.468Z,88553.34
2022-11-05T11:50:15.356Z,88540.94
2022-11-05T11:52:59.994Z,88548.44
2022-11-05T11:55:44.601Z,88551.09
2022-11-05T11:58:29.299Z,88549.19
2022-11-05T12:01:14.036Z,88554.94
2022-11-05T12:03:58.734Z,88550.59
2022-11-05T12:06:43.300Z,88555.16
2022-11-05T12:09:28.046Z,88536.19
2022-11-05T12:12:12.895Z,88545.31
2022-11-05T12:14:57.463Z,88556.13
2022-11-05T12:17:42.216Z,88543.34
2022-11-05T12:20:27.043Z,88549.84
2022-11-05T12:23:12.295Z,88552.59
2022-11-05T12:25:57.215Z,88544.03
2022-11-05T12:29:04.485Z,88547.19
2022-11-05T12:31:47.069Z,88545.34
2022-11-05T12:34:31.838Z,88541.94
2022-11-05T12:37:16.656Z,88545.03
2022-11-05T12:40:01.356Z,88538.25
2022-11-05T12:42:46.166Z,88539.81
2022-11-05T12:45:30.960Z,88545.72
2022-11-05T12:48:16.239Z,88537.31
2022-11-05T12:51:00.999Z,88531.63
2022-11-05T12:53:45.692Z,88529.03
2022-11-05T12:56:30.439Z,88542.63
2022-11-05T12:59:15.128Z,88539.31
2022-11-05T13:02:00.040Z,88541.78
2022-11-05T13:04:45.243Z,88537.25
2022-11-05T13:07:30.057Z,88545.81
2022-11-05T13:10:14.809Z,88549.06
2022-11-05T13:12:59.589Z,88540.06
2022-11-05T13:15:44.413Z,88533.97
2022-11-05T13:18:29.205Z,88530.47
2022-11-05T13:21:13.878Z,88517.56
2022-11-05T13:23:58.482Z,88525.53
2022-11-05T13:26:43.417Z,88525.81
2022-11-05T13:29:28.038Z,88518.63
2022-11-05T13:32:13.405Z,88520.00
2022-11-05T13:34:58.022Z,88527.28
2022-11-05T13:37:42.747Z,88524.31
2022-11-05T13:40:27.474Z,88523.47
2022-11-05T13:43:12.401Z,88517.44
2022-11-05T13:46:02.805Z,88515.09
2022-11-05T13:48:50.181Z,88511.28
2022-11-05T13:51:39.117Z,88510.38
2022-11-05T13:54:24.323Z,88508.78
2022-11-05T13:57:09.099Z,88513.81
2022-11-05T13:59:53.967Z,88512.81
2022-11-05T14:02:38.844Z,88515.41
2022-11-05T14:05:23.499Z,88522.13
2022-11-05T14:08:08.221Z,88513.03
2022-11-05T14:10:52.979Z,88505.94
2022-11-05T14:13:37.815Z,88504.91
2022-11-05T14:16:22.586Z,88513.41
2022-11-05T14:19:07.417Z,88515.97
2022-11-05T14:21:52.167Z,88513.88
2022-11-05T14:24:37.085Z,88522.19
2022-11-05T14:27:21.942Z,88528.22
2022-11-05T14:30:06.740Z,88528.47
2022-11-05T14:32:51.760Z,88520.47
2022-11-05T14:35:36.431Z,88518.34
2022-11-05T14:38:21.342Z,88529.09
2022-11-05T14:41:06.599Z,88527.94
2022-11-05T14:43:51.446Z,88532.94
2022-11-05T14:46:36.281Z,88531.69
2022-11-05T14:49:21.308Z,88529.59
2022-11-05T14:52:06.573Z,88527.78
2022-11-05T14:54:51.260Z,88532.09
2022-11-05T14:57:36.214Z,88532.94
2022-11-05T15:00:20.959Z,88530.53
2022-11-05T15:03:05.788Z,88532.94
2022-11-05T15:05:50.580Z,88530.25
2022-11-05T15:08:35.269Z,88535.22
2022-11-05T15:11:19.944Z,88542.81
2022-11-05T15:14:04.815Z,88532.50
2022-11-05T15:16:49.681Z,88537.47
2022-11-05T15:19:34.317Z,88534.28
2022-11-05T15:22:19.024Z,88543.47
2022-11-05T15:25:03.817Z,88551.56
2022-11-05T15:27:48.686Z,88558.94
2022-11-05T15:30:33.346Z,88554.00
2022-11-05T15:33:18.245Z,88558.22
2022-11-05T15:36:02.863Z,88557.41
2022-11-05T15:39:08.208Z,88561.97
2022-11-05T15:41:52.437Z,88547.09
2022-11-05T15:44:37.162Z,88553.69
2022-11-05T15:47:21.898Z,88551.09
2022-11-05T15:50:13.096Z,88566.47
2022-11-05T15:53:20.637Z,88558.38
2022-11-05T15:56:04.289Z,88561.97
2022-11-05T15:58:49.027Z,88562.72
2022-11-05T16:01:33.854Z,88570.81
2022-11-05T16:04:19.125Z,88566.13
2022-11-05T16:07:03.779Z,88563.25
2022-11-05T16:09:48.413Z,88565.00
2022-11-05T16:12:33.193Z,88574.88
2022-11-05T16:15:17.970Z,88569.88
2022-11-05T16:18:02.818Z,88562.88
2022-11-05T16:20:47.410Z,88572.28
2022-11-05T16:23:32.285Z,88568.56
2022-11-05T16:26:29.758Z,88569.69
2022-11-05T16:29:22.102Z,88569.59
2022-11-05T16:32:07.014Z,88576.03
2022-11-05T16:34:52.024Z,88570.69
2022-11-05T16:37:36.767Z,88573.84
2022-11-05T16:40:21.383Z,88574.66
2022-11-05T16:43:06.255Z,88581.78
2022-11-05T16:45:50.903Z,88582.97
2022-11-05T16:48:35.569Z,88595.19
2022-11-05T16:51:26.271Z,88598.53
2022-11-05T16:54:12.455Z,88598.34
2022-11-05T16:56:57.358Z,88605.09
2022-11-05T16:59:42.106Z,88610.56
2022-11-05T17:02:26.955Z,88611.50
2022-11-05T17:05:12.272Z,88613.22
2022-11-05T17:07:56.906Z,88614.66
2022-11-05T17:10:41.594Z,88615.84
2022-11-05T17:13:26.340Z,88606.69
2022-11-05T17:16:11.012Z,88613.97
2022-11-05T17:18:55.687Z,88613.06
2022-11-05T17:21:40.543Z,88619.13
2022-11-05T17:24:25.299Z,88612.56
2022-11-05T17:27:10.141Z,88611.69
2022-11-05T17:29:54.978Z,88611.25
2022-11-05T17:32:39.908Z,88613.13
2022-11-05T17:35:24.660Z,88613.44
2022-11-05T17:38:09.467Z,88613.63
2022-11-05T17:40:54.246Z,88620.25
2022-11-05T17:43:38.946Z,88622.38
2022-11-05T17:46:23.670Z,88626.41
2022-11-05T17:49:08.415Z,88623.56
2022-11-05T17:51:53.210Z,88627.91
2022-11-05T17:54:37.884Z,88640.63
2022-11-05T17:57:22.811Z,88641.13
2022-11-05T18:00:07.504Z,88645.63
2022-11-05T18:02:52.192Z,88648.44
2022-11-05T18:05:37.084Z,88650.13
2022-11-05T18:08:22.332Z,88654.44
2022-11-05T18:11:07.088Z,88663.88
2022-11-05T18:13:51.819Z,88663.66
2022-11-05T18:16:36.659Z,88673.28
2022-11-05T18:19:21.395Z,88669.72
2022-11-05T18:22:06.204Z,88678.19
2022-11-05T18:24:51.038Z,88681.72
2022-11-05T18:27:35.994Z,88680.53
2022-11-05T18:30:20.998Z,88669.00
2022-11-05T18:33:05.803Z,88664.97
2022-11-05T18:35:51.084Z,88663.31
2022-11-05T18:38:35.904Z,88657.69
2022-11-05T18:41:21.215Z,88660.97
2022-11-05T18:44:06.051Z,88660.03
2022-11-05T18:46:58.191Z,88654.34
2022-11-05T18:49:43.723Z,88651.13
2022-11-05T18:52:28.615Z,88659.38
2022-11-05T18:55:13.334Z,88664.81
2022-11-05T18:57:58.107Z,88668.88
2022-11-05T19:00:42.702Z,88670.72
2022-11-05T19:03:27.503Z,88668.84
2022-11-05T19:06:12.165Z,88675.66
2022-11-05T19:08:57.508Z,88675.91
2022-11-05T19:11:42.183Z,88676.84
2022-11-05T19:14:26.935Z,88682.22
2022-11-05T19:17:11.833Z,88686.69
2022-11-05T19:19:56.583Z,88688.13
2022-11-05T19:22:41.382Z,88685.28
2022-11-05T19:25:26.090Z,88686.97
2022-11-05T19:28:11.058Z,88691.91
2022-11-05T19:30:56.115Z,88693.34
2022-11-05T19:33:41.000Z,88697.81
2022-11-05T19:36:26.036Z,88699.22
2022-11-05T19:39:11.078Z,88708.63
2022-11-05T19:42:01.986Z,88701.31
2022-11-05T19:44:48.701Z,88699.66
2022-11-05T19:47:33.472Z,88690.53
2022-11-05T19:50:19.343Z,88684.66
2022-11-05T19:53:04.890Z,88678.31
2022-11-05T19:55:49.709Z,88686.75
2022-11-05T19:58:34.417Z,88689.81
2022-11-05T20:01:19.240Z,88687.47
2022-11-05T20:04:04.294Z,88684.91
2022-11-05T20:06:49.031Z,88687.69
2022-11-05T20:09:33.755Z,88692.88
2022-11-05T20:12:18.527Z,88695.94
2022-11-05T20:15:03.306Z,88698.03
2022-11-05T20:17:48.026Z,88699.47
2022-11-05T20:20:32.868Z,88698.03
2022-11-05T20:23:17.676Z,88687.94
2022-11-05T20:26:02.467Z,88691.44
2022-11-05T20:28:47.230Z,88687.22
2022-11-05T20:31:32.178Z,88680.41
2022-11-05T20:34:16.906Z,88689.34
2022-11-05T20:37:01.625Z,88699.19
2022-11-05T20:39:46.250Z,88697.06
2022-11-05T20:42:30.985Z,88710.47
2022-11-05T20:45:15.722Z,88720.59
2022-11-05T20:48:00.354Z,88728.31
2022-11-05T20:50:45.129Z,88731.59
2022-11-05T20:53:29.848Z,88741.94
2022-11-05T20:56:14.636Z,88750.38
2022-11-05T20:58:59.476Z,88734.44
2022-11-05T21:01:44.328Z,88746.88
2022-11-05T21:04:29.439Z,88741.00
2022-11-05T21:07:14.172Z,88737.94
2022-11-05T21:09:59.009Z,88742.91
2022-11-05T21:12:43.704Z,88752.50
2022-11-05T21:15:28.470Z,88751.56
2022-11-05T21:18:13.460Z,88751.81
2022-11-05T21:20:58.564Z,88747.09
2022-11-05T21:23:43.347Z,88760.25
2022-11-05T21:26:28.243Z,88760.00
2022-11-05T21:29:12.895Z,88759.06
2022-11-05T21:31:57.651Z,88761.16
2022-11-05T21:34:42.349Z,88748.03
2022-11-05T21:37:27.286Z,88742.66
2022-11-05T21:40:12.026Z,88739.34
2022-11-05T21:42:56.642Z,88728.09
2022-11-05T21:45:41.280Z,88728.56
2022-11-05T21:48:26.066Z,88728.31
2022-11-05T21:51:11.009Z,88728.31
2022-11-05T21:53:55.739Z,88726.22
2022-11-05T21:56:40.522Z,88727.63
2022-11-05T21:59:25.347Z,88728.81
2022-11-05T22:02:10.159Z,88725.28
2022-11-05T22:04:55.379Z,88730.22
2022-11-05T22:07:40.186Z,88731.63
2022-11-05T22:10:25.067Z,88742.16
2022-11-05T22:13:09.808Z,88739.13
2022-11-05T22:15:54.743Z,88738.19
2022-11-05T22:18:39.407Z,88735.59
2022-11-05T22:21:24.326Z,88732.78
2022-11-05T22:24:09.092Z,88735.59
2022-11-05T22:26:53.878Z,88735.59
2022-11-05T22:29:38.572Z,88742.41
2022-11-05T22:32:23.333Z,88743.34
2022-11-05T22:35:07.999Z,88754.84
2022-11-05T22:37:52.759Z,88752.50
2022-11-05T22:40:37.670Z,88753.91
2022-11-05T22:43:22.553Z,88751.56
2022-11-05T22:46:07.292Z,88737.47
2022-11-05T22:48:52.133Z,88741.47
2022-11-05T22:51:37.004Z,88732.31
2022-11-05T22:54:21.658Z,88726.22
2022-11-05T22:57:06.503Z,88728.78
2022-11-05T22:59:51.337Z,88720.56
2022-11-05T23:02:36.163Z,88709.78
2022-11-05T23:05:21.344Z,88710.25
2022-11-05T23:08:06.075Z,88714.00
2022-11-05T23:10:50.892Z,88714.69
2022-11-05T23:13:35.570Z,88720.31
2022-11-05T23:16:20.367Z,88723.81
2022-11-05T23:19:05.012Z,88724.53
2022-11-05T23:21:50.035Z,88724.06
2022-11-05T23:24:34.799Z,88733.19
2022-11-05T23:27:19.680Z,88726.88
2022-11-05T23:30:04.647Z,88721.44
2022-11-05T23:32:49.404Z,88722.66
2022-11-05T23:35:34.303Z,88720.78
2022-11-05T23:38:19.075Z,88725.47
2022-11-05T23:41:03.920Z,88735.09
2022-11-05T23:43:48.622Z,88734.84
2022-11-05T23:46:33.396Z,88732.53
2022-11-05T23:49:18.129Z,88721.94
2022-11-05T23:52:02.788Z,88723.09
2022-11-05T23:54:47.537Z,88712.09
2022-11-05T23:57:32.316Z,88693.34
